Time;durP1;ratioP1;P1;durP2;ratioP2;P2;SDS_P1;SDS_P2;PMS_P1;PMS_P2;Temp;Humidity;BMP_temperature;BMP_pressure;BME280_temperature;BME280_humidity;BME280_pressure;Samples;Min_cycle;Max_cycle;Signal;HPM_P1;HPM_P2
2021/04/17 00:01:10;;;;;;;27.13;16.50;;;;;;;;;;5053156;28;20206;-78
2021/04/17 00:03:36;;;;;;;25.57;16.10;;;;;;;;;;5052853;28;20522;-78
2021/04/17 00:06:01;;;;;;;27.97;16.77;;;;;;;;;;5055461;28;20256;-78
2021/04/17 00:08:26;;;;;;;25.80;16.77;;;;;;;;;;5056424;28;20597;-77
2021/04/17 00:10:52;;;;;;;33.40;16.67;;;;;;;;;;5056325;28;20172;-78
2021/04/17 00:13:17;;;;;;;26.13;15.77;;;;;;;;;;5056314;28;20171;-77
2021/04/17 00:15:42;;;;;;;31.83;16.50;;;;;;;;;;5056228;28;20183;-78
2021/04/17 00:18:08;;;;;;;31.60;17.30;;;;;;;;;;5056191;28;20181;-77
2021/04/17 00:20:33;;;;;;;34.90;17.80;;;;;;;;;;5056119;28;20176;-77
2021/04/17 00:22:58;;;;;;;30.07;17.10;;;;;;;;;;5056235;28;20651;-77
2021/04/17 00:25:24;;;;;;;30.17;18.63;;;;;;;;;;5056269;28;20168;-78
2021/04/17 00:27:49;;;;;;;35.50;19.20;;;;;;;;;;5056033;28;20176;-77
2021/04/17 00:30:14;;;;;;;31.37;17.13;;;;;;;;;;5056268;28;20624;-77
2021/04/17 00:32:40;;;;;;;33.17;17.57;;;;;;;;;;5056208;28;20569;-77
2021/04/17 00:35:06;;;;;;;33.27;17.50;;;;;;;;;;5056207;28;20180;-78
2021/04/17 00:37:32;;;;;;;36.73;17.57;;;;;;;;;;5056394;28;20234;-78
2021/04/17 00:39:57;;;;;;;26.20;17.43;;;;;;;;;;5056210;28;20228;-78
2021/04/17 00:42:22;;;;;;;29.83;18.50;;;;;;;;;;5055689;28;20184;-78
2021/04/17 00:44:48;;;;;;;31.37;17.60;;;;;;;;;;5056019;28;20255;-78
2021/04/17 00:47:14;;;;;;;32.77;19.10;;;;;;;;;;5055656;28;20669;-77
2021/04/17 00:49:39;;;;;;;36.07;19.53;;;;;;;;;;5056152;28;20183;-78
2021/04/17 00:52:05;;;;;;;38.20;20.03;;;;;;;;;;5055659;28;20168;-78
2021/04/17 00:54:30;;;;;;;35.83;19.77;;;;;;;;;;5055900;28;20578;-78
2021/04/17 00:56:55;;;;;;;38.13;20.47;;;;;;;;;;5055749;28;20172;-78
2021/04/17 00:59:21;;;;;;;35.03;20.93;;;;;;;;;;5055410;28;20542;-78
2021/04/17 01:01:47;;;;;;;38.93;19.37;;;;;;;;;;5055368;28;20195;-78
2021/04/17 01:04:19;;;;;;;34.43;18.37;;;;;;;;;;5056191;28;20198;-77
2021/04/17 01:06:48;;;;;;;36.87;18.03;;;;;;;;;;5055134;28;20261;-78
2021/04/17 01:09:23;;;;;;;37.70;19.37;;;;;;;;;;5055321;28;20178;-78
2021/04/17 01:11:59;;;;;;;37.47;19.20;;;;;;;;;;5055446;28;20229;-78
2021/04/17 01:14:24;;;;;;;37.63;20.97;;;;;;;;;;5055407;28;20172;-78
2021/04/17 01:16:50;;;;;;;35.50;19.83;;;;;;;;;;5054597;28;20172;-78
2021/04/17 01:19:22;;;;;;;38.90;19.60;;;;;;;;;;5055338;28;20202;-78
2021/04/17 01:21:48;;;;;;;34.60;20.03;;;;;;;;;;5055359;28;20548;-78
2021/04/17 01:24:15;;;;;;;43.50;20.53;;;;;;;;;;5054986;28;20179;-78
2021/04/17 01:26:41;;;;;;;46.17;19.93;;;;;;;;;;5055138;28;20199;-78
2021/04/17 01:29:07;;;;;;;37.03;19.83;;;;;;;;;;5055148;28;20183;-78
2021/04/17 01:31:33;;;;;;;34.10;20.57;;;;;;;;;;5055105;28;20195;-78
2021/04/17 01:34:01;;;;;;;37.93;20.37;;;;;;;;;;5055136;28;20634;-78
2021/04/17 01:36:27;;;;;;;37.47;21.10;;;;;;;;;;5055000;28;20179;-78
2021/04/17 01:38:57;;;;;;;38.20;20.73;;;;;;;;;;5055340;28;20231;-77
2021/04/17 01:41:28;;;;;;;40.63;20.90;;;;;;;;;;5055438;28;20196;-78
2021/04/17 01:43:54;;;;;;;39.33;20.60;;;;;;;;;;5055414;28;20626;-78
2021/04/17 01:46:21;;;;;;;40.90;21.63;;;;;;;;;;5054461;28;20206;-78
2021/04/17 01:48:47;;;;;;;32.90;20.07;;;;;;;;;;5054782;28;20309;-78
2021/04/17 01:51:13;;;;;;;31.17;19.03;;;;;;;;;;5055291;28;20223;-78
2021/04/17 01:53:40;;;;;;;34.47;22.13;;;;;;;;;;5054380;28;20259;-78
2021/04/17 01:56:06;;;;;;;35.40;19.63;;;;;;;;;;5054368;28;20182;-78
2021/04/17 01:58:34;;;;;;;37.47;21.43;;;;;;;;;;5054364;28;20172;-78
2021/04/17 02:01:00;;;;;;;33.30;19.57;;;;;;;;;;5054336;28;20167;-78
2021/04/17 02:03:26;;;;;;;33.37;20.33;;;;;;;;;;5054857;28;20682;-78
2021/04/17 02:05:52;;;;;;;30.87;19.70;;;;;;;;;;5054099;28;20291;-78
2021/04/17 02:08:18;;;;;;;30.03;19.30;;;;;;;;;;5054255;28;20254;-78
2021/04/17 02:10:44;;;;;;;29.77;20.07;;;;;;;;;;5054122;28;20196;-78
2021/04/17 02:13:10;;;;;;;33.63;20.70;;;;;;;;;;5054305;28;20229;-77
2021/04/17 02:15:36;;;;;;;35.37;20.77;;;;;;;;;;5054638;28;20180;-77
2021/04/17 02:18:05;;;;;;;30.97;21.20;;;;;;;;;;5054259;28;20175;-78
2021/04/17 02:20:33;;;;;;;30.17;20.23;;;;;;;;;;5054194;28;20225;-78
2021/04/17 02:22:58;;;;;;;25.20;17.80;;;;;;;;;;5054214;28;20226;-78
2021/04/17 02:25:24;;;;;;;27.53;18.50;;;;;;;;;;5053875;28;20625;-78
2021/04/17 02:27:50;;;;;;;28.97;18.73;;;;;;;;;;5053965;28;20215;-78
2021/04/17 02:30:15;;;;;;;31.70;20.37;;;;;;;;;;5054118;28;20683;-78
2021/04/17 02:32:41;;;;;;;29.77;19.60;;;;;;;;;;5053732;28;20174;-78
2021/04/17 02:35:06;;;;;;;29.33;20.83;;;;;;;;;;5054293;28;20198;-78
2021/04/17 02:37:32;;;;;;;25.60;18.93;;;;;;;;;;5053943;28;20225;-78
2021/04/17 02:39:57;;;;;;;30.53;19.97;;;;;;;;;;5054098;28;20215;-78
2021/04/17 02:42:22;;;;;;;31.97;21.00;;;;;;;;;;5053840;28;20187;-78
2021/04/17 02:44:48;;;;;;;33.50;22.83;;;;;;;;;;5053816;28;20186;-78
2021/04/17 02:47:13;;;;;;;30.23;19.97;;;;;;;;;;5053833;28;20206;-78
2021/04/17 02:49:38;;;;;;;27.67;19.37;;;;;;;;;;5053648;28;20225;-78
2021/04/17 02:52:04;;;;;;;24.70;18.03;;;;;;;;;;5054102;28;20615;-78
2021/04/17 02:54:29;;;;;;;29.37;19.37;;;;;;;;;;5054370;28;20581;-78
2021/04/17 02:56:55;;;;;;;26.30;18.37;;;;;;;;;;5053781;28;20171;-78
2021/04/17 02:59:20;;;;;;;27.77;18.30;;;;;;;;;;5053745;28;20232;-78
2021/04/17 03:01:46;;;;;;;28.00;18.77;;;;;;;;;;5053944;28;20179;-78
2021/04/17 03:04:11;;;;;;;26.63;18.27;;;;;;;;;;5053627;28;20196;-78
2021/04/17 03:06:36;;;;;;;28.23;19.70;;;;;;;;;;5053335;28;20199;-78
2021/04/17 03:09:02;;;;;;;31.70;21.83;;;;;;;;;;5053413;28;20198;-78
2021/04/17 03:11:28;;;;;;;30.63;20.60;;;;;;;;;;5053399;28;20168;-78
2021/04/17 03:13:53;;;;;;;29.33;20.57;;;;;;;;;;5053589;28;20498;-78
2021/04/17 03:16:18;;;;;;;31.03;20.93;;;;;;;;;;5053645;28;20645;-78
2021/04/17 03:18:44;;;;;;;32.23;22.03;;;;;;;;;;5053856;28;20562;-78
2021/04/17 03:21:09;;;;;;;30.67;21.17;;;;;;;;;;5053879;28;20172;-78
2021/04/17 03:23:35;;;;;;;31.53;20.90;;;;;;;;;;5054008;28;20196;-78
2021/04/17 03:26:00;;;;;;;29.00;19.53;;;;;;;;;;5053909;28;20195;-78
2021/04/17 03:28:25;;;;;;;29.20;19.83;;;;;;;;;;5053669;28;20176;-78
2021/04/17 03:30:51;;;;;;;30.43;20.13;;;;;;;;;;5053102;28;20172;-78
2021/04/17 03:33:16;;;;;;;28.47;17.67;;;;;;;;;;5053390;28;20251;-78
2021/04/17 03:35:41;;;;;;;30.03;19.20;;;;;;;;;;5053176;28;20170;-78
2021/04/17 03:38:07;;;;;;;29.97;18.97;;;;;;;;;;5052943;28;20748;-78
2021/04/17 03:40:32;;;;;;;30.03;20.67;;;;;;;;;;5055636;28;20192;-78
2021/04/17 03:42:58;;;;;;;32.00;21.10;;;;;;;;;;5057429;28;20188;-78
2021/04/17 03:45:23;;;;;;;29.70;20.10;;;;;;;;;;5056833;28;20171;-78
2021/04/17 03:47:48;;;;;;;33.00;21.40;;;;;;;;;;5057500;28;20207;-78
2021/04/17 03:50:14;;;;;;;29.83;19.93;;;;;;;;;;5057095;28;20179;-78
2021/04/17 03:52:40;;;;;;;30.13;20.63;;;;;;;;;;5057267;28;20513;-78
2021/04/17 03:55:08;;;;;;;32.20;20.27;;;;;;;;;;5057054;28;20179;-78
2021/04/17 03:57:34;;;;;;;30.43;19.80;;;;;;;;;;5056888;28;20207;-78
2021/04/17 03:59:59;;;;;;;27.97;19.33;;;;;;;;;;5057621;28;20191;-78
2021/04/17 04:02:24;;;;;;;29.03;19.30;;;;;;;;;;5056471;28;20169;-78
2021/04/17 04:04:50;;;;;;;28.63;19.23;;;;;;;;;;5057027;28;20171;-78
2021/04/17 04:07:15;;;;;;;31.80;20.57;;;;;;;;;;5056347;28;20203;-78
2021/04/17 04:09:40;;;;;;;31.50;20.17;;;;;;;;;;5056646;28;20172;-78
2021/04/17 04:12:06;;;;;;;30.23;20.40;;;;;;;;;;5056443;28;20175;-78
2021/04/17 04:14:31;;;;;;;27.27;20.00;;;;;;;;;;5056865;28;20274;-78
2021/04/17 04:16:57;;;;;;;27.37;19.40;;;;;;;;;;5057059;28;20181;-78
2021/04/17 04:19:22;;;;;;;26.30;18.97;;;;;;;;;;5057087;28;20557;-78
2021/04/17 04:21:47;;;;;;;27.03;19.70;;;;;;;;;;5056457;28;20280;-78
2021/04/17 04:24:13;;;;;;;31.63;21.00;;;;;;;;;;5056145;28;20259;-78
2021/04/17 04:26:38;;;;;;;27.60;18.37;;;;;;;;;;5056380;28;20328;-78
2021/04/17 04:29:04;;;;;;;29.50;19.10;;;;;;;;;;5056037;28;20207;-78
2021/04/17 04:31:29;;;;;;;27.63;18.57;;;;;;;;;;5056004;28;20170;-78
2021/04/17 04:33:54;;;;;;;26.80;19.07;;;;;;;;;;5056286;28;20172;-78
2021/04/17 04:36:20;;;;;;;32.33;20.57;;;;;;;;;;5056444;28;20167;-78
2021/04/17 04:38:45;;;;;;;34.90;21.80;;;;;;;;;;5056422;28;20224;-78
2021/04/17 04:41:11;;;;;;;34.37;20.87;;;;;;;;;;5056554;28;20278;-78
2021/04/17 04:43:36;;;;;;;33.70;21.07;;;;;;;;;;5056069;28;20195;-78
2021/04/17 04:46:01;;;;;;;35.27;23.80;;;;;;;;;;5055956;28;20192;-78
2021/04/17 04:48:27;;;;;;;32.47;23.20;;;;;;;;;;5055705;28;20175;-78
2021/04/17 04:50:52;;;;;;;33.00;22.77;;;;;;;;;;5055142;28;20173;-78
2021/04/17 04:53:19;;;;;;;31.37;21.00;;;;;;;;;;5055377;28;20168;-78
2021/04/17 04:55:44;;;;;;;32.00;21.97;;;;;;;;;;5056101;28;20171;-77
2021/04/17 04:58:09;;;;;;;34.83;22.93;;;;;;;;;;5055891;28;20255;-78
2021/04/17 05:00:35;;;;;;;36.00;21.93;;;;;;;;;;5055818;28;20310;-78
2021/04/17 05:03:00;;;;;;;30.50;21.03;;;;;;;;;;5055464;28;20254;-78
2021/04/17 05:05:25;;;;;;;28.23;19.97;;;;;;;;;;5055925;28;20168;-78
2021/04/17 05:07:51;;;;;;;26.77;17.90;;;;;;;;;;5055246;28;20198;-78
2021/04/17 05:10:16;;;;;;;28.27;19.27;;;;;;;;;;5055613;28;20174;-78
2021/04/17 05:12:41;;;;;;;28.30;19.00;;;;;;;;;;5055823;28;20503;-78
2021/04/17 05:15:07;;;;;;;30.07;21.17;;;;;;;;;;5055300;28;20168;-78
2021/04/17 05:17:33;;;;;;;32.60;22.37;;;;;;;;;;5056071;28;20183;-78
2021/04/17 05:19:58;;;;;;;35.87;23.80;;;;;;;;;;5055700;28;20175;-78
2021/04/17 05:22:24;;;;;;;38.33;24.70;;;;;;;;;;5055111;28;20168;-78
2021/04/17 05:24:49;;;;;;;34.40;22.30;;;;;;;;;;5055312;28;20255;-78
2021/04/17 05:27:15;;;;;;;30.77;21.27;;;;;;;;;;5055460;28;20341;-78
2021/04/17 05:29:40;;;;;;;34.73;22.83;;;;;;;;;;5055002;28;20175;-78
2021/04/17 05:32:07;;;;;;;40.90;27.60;;;;;;;;;;5055496;28;20255;-78
2021/04/17 05:34:32;;;;;;;63.87;44.33;;;;;;;;;;5055579;28;20179;-78
2021/04/17 05:36:58;;;;;;;58.93;40.10;;;;;;;;;;5054933;28;20514;-78
2021/04/17 05:39:23;;;;;;;58.93;37.63;;;;;;;;;;5055135;28;20563;-78
2021/04/17 05:41:48;;;;;;;47.07;30.73;;;;;;;;;;5054806;28;20195;-78
2021/04/17 05:44:14;;;;;;;70.63;46.30;;;;;;;;;;5054866;28;20610;-78
2021/04/17 05:46:40;;;;;;;39.67;27.50;;;;;;;;;;5054698;28;20695;-78
2021/04/17 05:49:06;;;;;;;100.57;66.20;;;;;;;;;;5054540;28;20168;-78
2021/04/17 05:51:32;;;;;;;95.33;49.80;;;;;;;;;;5054686;28;20182;-78
2021/04/17 05:53:57;;;;;;;36.90;25.17;;;;;;;;;;5054721;28;20198;-78
2021/04/17 05:56:22;;;;;;;140.40;66.47;;;;;;;;;;5054360;28;20235;-78
2021/04/17 05:58:48;;;;;;;56.67;38.10;;;;;;;;;;5054383;28;20177;-78
2021/04/17 06:01:13;;;;;;;30.13;20.33;;;;;;;;;;5054368;28;20175;-78
2021/04/17 06:03:38;;;;;;;32.47;22.93;;;;;;;;;;5054280;28;20533;-78
2021/04/17 06:06:04;;;;;;;29.63;21.13;;;;;;;;;;5054632;28;20672;-78
2021/04/17 06:08:29;;;;;;;32.57;23.10;;;;;;;;;;5053192;28;20186;-78
2021/04/17 06:10:54;;;;;;;32.40;23.67;;;;;;;;;;5054449;28;20186;-78
2021/04/17 06:13:20;;;;;;;29.33;21.13;;;;;;;;;;5054660;28;20179;-78
2021/04/17 06:15:45;;;;;;;30.47;22.33;;;;;;;;;;5055004;28;20179;-78
2021/04/17 06:18:10;;;;;;;38.33;27.83;;;;;;;;;;5054594;28;20179;-78
2021/04/17 06:20:36;;;;;;;33.93;21.37;;;;;;;;;;5054571;28;20194;-77
2021/04/17 06:23:01;;;;;;;40.33;26.57;;;;;;;;;;5054809;28;20207;-78
2021/04/17 06:25:26;;;;;;;36.43;25.13;;;;;;;;;;5053890;28;20259;-77
2021/04/17 06:27:51;;;;;;;31.30;22.13;;;;;;;;;;5053784;28;20234;-78
2021/04/17 06:30:17;;;;;;;33.60;24.63;;;;;;;;;;5054341;28;20218;-78
2021/04/17 06:32:43;;;;;;;34.97;24.90;;;;;;;;;;5054457;28;20176;-78
2021/04/17 06:35:09;;;;;;;27.53;18.60;;;;;;;;;;5054882;28;20175;-78
2021/04/17 06:37:34;;;;;;;30.37;21.43;;;;;;;;;;5053698;28;20183;-78
2021/04/17 06:40:00;;;;;;;29.60;21.30;;;;;;;;;;5054414;28;20230;-78
2021/04/17 06:42:26;;;;;;;30.77;21.87;;;;;;;;;;5053600;28;20215;-79
2021/04/17 06:44:52;;;;;;;32.03;23.60;;;;;;;;;;5054199;28;20177;-78
2021/04/17 06:47:18;;;;;;;31.93;22.00;;;;;;;;;;5053957;28;20543;-78
2021/04/17 06:49:43;;;;;;;33.67;25.53;;;;;;;;;;5053898;28;20172;-78
2021/04/17 06:52:10;;;;;;;30.37;21.07;;;;;;;;;;5054129;28;20180;-78
2021/04/17 06:54:36;;;;;;;26.87;20.27;;;;;;;;;;5053573;28;20168;-77
2021/04/17 06:57:01;;;;;;;30.20;20.57;;;;;;;;;;5053519;28;20548;-78
2021/04/17 06:59:29;;;;;;;30.53;22.57;;;;;;;;;;5054290;28;20195;-78
2021/04/17 07:01:54;;;;;;;36.10;25.60;;;;;;;;;;5053730;28;20176;-78
2021/04/17 07:04:20;;;;;;;37.77;26.23;;;;;;;;;;5035249;28;20208;-78
2021/04/17 07:06:45;;;;;;;37.87;27.23;;;;;;;;;;5033411;28;20567;-79
2021/04/17 07:09:10;;;;;;;35.97;25.03;;;;;;;;;;5033755;28;20168;-78
2021/04/17 07:11:36;;;;;;;30.13;21.37;;;;;;;;;;5033761;28;20215;-78
2021/04/17 07:14:05;;;;;;;29.77;22.17;;;;;;;;;;5033990;28;20615;-79
2021/04/17 07:16:31;;;;;;;25.30;18.80;;;;;;;;;;5037571;28;20702;-78
2021/04/17 07:18:56;;;;;;;26.37;19.40;;;;;;;;;;5036174;28;20251;-78
2021/04/17 07:21:22;;;;;;;23.67;17.93;;;;;;;;;;5036091;28;20260;-80
2021/04/17 07:23:48;;;;;;;24.43;19.47;;;;;;;;;;5036183;28;20179;-79
2021/04/17 07:26:15;;;;;;;20.60;15.47;;;;;;;;;;5036786;28;20282;-79
2021/04/17 07:29:01;;;;;;;20.33;17.13;;;;;;;;;;5037469;28;20176;-79
2021/04/17 07:31:27;;;;;;;23.60;17.97;;;;;;;;;;5036819;28;20195;-78
2021/04/17 07:33:53;;;;;;;24.60;19.60;;;;;;;;;;5037381;28;20196;-78
2021/04/17 07:36:19;;;;;;;29.93;22.03;;;;;;;;;;5030921;28;20195;-79
2021/04/17 07:38:45;;;;;;;24.87;19.13;;;;;;;;;;5022779;28;20673;-79
2021/04/17 07:41:20;;;;;;;23.70;18.23;;;;;;;;;;5016997;28;20213;-79
2021/04/17 07:43:46;;;;;;;23.20;17.73;;;;;;;;;;5016997;28;20550;-78
2021/04/17 07:46:11;;;;;;;22.20;17.00;;;;;;;;;;5017382;28;20201;-78
2021/04/17 07:48:36;;;;;;;20.83;15.20;;;;;;;;;;5016840;28;20631;-79
2021/04/17 07:51:04;;;;;;;23.17;17.43;;;;;;;;;;5015460;28;20173;-79
2021/04/17 07:53:31;;;;;;;22.47;16.90;;;;;;;;;;5017582;28;20184;-79
2021/04/17 07:55:57;;;;;;;23.10;18.30;;;;;;;;;;5023481;28;20187;-79
2021/04/17 07:58:23;;;;;;;21.17;16.90;;;;;;;;;;5036787;28;20195;-78
2021/04/17 08:00:48;;;;;;;24.60;18.27;;;;;;;;;;5036310;28;20627;-78
2021/04/17 08:03:16;;;;;;;25.83;19.73;;;;;;;;;;5036449;28;20597;-78
2021/04/17 08:05:42;;;;;;;24.40;17.90;;;;;;;;;;5036502;28;20180;-79
2021/04/17 08:08:08;;;;;;;20.70;16.93;;;;;;;;;;5036605;28;20176;-79
2021/04/17 08:10:33;;;;;;;27.20;18.43;;;;;;;;;;5034464;28;20183;-79
2021/04/17 08:13:00;;;;;;;25.60;20.10;;;;;;;;;;5035655;28;20276;-79
2021/04/17 08:15:26;;;;;;;27.57;19.57;;;;;;;;;;5035888;28;20172;-79
2021/04/17 08:17:53;;;;;;;30.67;19.90;;;;;;;;;;5035380;28;20226;-79
2021/04/17 08:20:20;;;;;;;28.40;20.50;;;;;;;;;;5035662;28;20182;-79
2021/04/17 08:22:47;;;;;;;36.97;25.67;;;;;;;;;;5035596;28;20181;-79
2021/04/17 08:25:13;;;;;;;30.03;23.20;;;;;;;;;;5035763;28;20187;-79
2021/04/17 08:27:39;;;;;;;20.93;15.63;;;;;;;;;;5035825;28;20212;-79
2021/04/17 08:30:09;;;;;;;20.47;15.13;;;;;;;;;;5035547;28;20370;-78
2021/04/17 08:32:44;;;;;;;17.30;15.20;;;;;;;;;;5032602;28;20180;-79
2021/04/17 08:35:12;;;;;;;14.93;12.37;;;;;;;;;;5033172;28;20247;-78
2021/04/17 08:37:56;;;;;;;19.77;16.07;;;;;;;;;;5035119;28;20620;-78
2021/04/17 08:40:39;;;;;;;20.20;15.20;;;;;;;;;;5025094;28;20176;-78
2021/04/17 08:43:25;;;;;;;18.93;13.90;;;;;;;;;;5032774;28;20197;-79
2021/04/17 08:45:56;;;;;;;18.10;15.40;;;;;;;;;;5031296;28;20256;-79
2021/04/17 08:48:40;;;;;;;19.77;14.87;;;;;;;;;;5033169;28;20637;-79
2021/04/17 08:51:20;;;;;;;16.57;13.63;;;;;;;;;;5033779;28;20169;-78
2021/04/17 08:53:45;;;;;;;22.17;17.27;;;;;;;;;;5034084;28;20164;-79
2021/04/17 08:56:11;;;;;;;20.37;15.83;;;;;;;;;;5034314;28;20223;-80
2021/04/17 08:58:38;;;;;;;20.43;16.20;;;;;;;;;;5034075;28;20214;-79
2021/04/17 09:01:05;;;;;;;19.23;15.10;;;;;;;;;;5033693;28;20181;-78
2021/04/17 09:03:33;;;;;;;21.90;14.90;;;;;;;;;;5034176;28;20177;-78
2021/04/17 09:05:58;;;;;;;21.70;16.00;;;;;;;;;;5035195;28;20261;-78
2021/04/17 09:08:24;;;;;;;19.27;15.60;;;;;;;;;;5036110;28;20600;-77
2021/04/17 09:10:49;;;;;;;21.00;16.93;;;;;;;;;;5035283;28;20177;-78
2021/04/17 09:13:16;;;;;;;21.27;16.20;;;;;;;;;;5035640;28;20172;-78
2021/04/17 09:15:52;;;;;;;26.17;18.60;;;;;;;;;;5035454;28;20176;-78
2021/04/17 09:18:38;;;;;;;27.67;20.13;;;;;;;;;;5034860;28;20242;-79
2021/04/17 09:21:06;;;;;;;28.20;20.03;;;;;;;;;;5035747;28;20175;-78
2021/04/17 09:23:40;;;;;;;30.83;20.03;;;;;;;;;;5033265;28;20180;-78
2021/04/17 09:26:07;;;;;;;22.47;16.73;;;;;;;;;;5033008;28;20713;-78
2021/04/17 09:28:36;;;;;;;58.90;39.33;;;;;;;;;;5034089;28;20639;-79
2021/04/17 09:31:03;;;;;;;79.43;46.03;;;;;;;;;;5035035;28;20658;-78
2021/04/17 09:33:28;;;;;;;53.23;32.40;;;;;;;;;;5035189;28;20564;-78
2021/04/17 09:35:53;;;;;;;46.27;28.97;;;;;;;;;;5035116;28;20168;-78
2021/04/17 09:38:19;;;;;;;63.03;38.53;;;;;;;;;;5034510;28;20224;-78
2021/04/17 09:40:44;;;;;;;38.63;27.07;;;;;;;;;;5035237;28;20173;-78
2021/04/17 09:43:23;;;;;;;21.43;16.97;;;;;;;;;;5035514;28;20195;-78
2021/04/17 09:45:52;;;;;;;30.60;23.40;;;;;;;;;;5035488;28;20219;-79
2021/04/17 09:48:19;;;;;;;18.67;15.10;;;;;;;;;;5033552;28;20180;-79
2021/04/17 09:50:46;;;;;;;18.10;13.57;;;;;;;;;;5032756;28;20176;-79
2021/04/17 09:53:13;;;;;;;19.27;16.17;;;;;;;;;;5030217;28;21003;-79
2021/04/17 09:55:52;;;;;;;20.17;17.47;;;;;;;;;;5022386;28;20185;-78
2021/04/17 09:58:21;;;;;;;62.97;38.00;;;;;;;;;;5023473;28;20180;-79
2021/04/17 10:00:47;;;;;;;50.60;31.03;;;;;;;;;;5033091;28;20178;-79
2021/04/17 10:03:12;;;;;;;34.80;26.50;;;;;;;;;;5017377;28;20181;-79
2021/04/17 10:05:37;;;;;;;25.90;19.70;;;;;;;;;;5012768;28;20257;-78
2021/04/17 10:08:03;;;;;;;82.57;48.70;;;;;;;;;;5012423;28;20232;-79
2021/04/17 10:10:35;;;;;;;41.27;31.03;;;;;;;;;;5015283;28;20173;-78
2021/04/17 10:13:01;;;;;;;21.97;17.47;;;;;;;;;;5014095;28;20255;-79
2021/04/17 10:15:27;;;;;;;32.30;28.77;;;;;;;;;;5013280;28;20265;-78
2021/04/17 10:17:55;;;;;;;56.27;50.87;;;;;;;;;;5015037;28;20177;-78
2021/04/17 10:20:20;;;;;;;31.07;25.07;;;;;;;;;;5014812;28;20173;-78
2021/04/17 10:22:50;;;;;;;76.93;44.80;;;;;;;;;;5015234;28;20219;-78
2021/04/17 10:25:32;;;;;;;25.90;17.80;;;;;;;;;;5015048;28;20174;-78
2021/04/17 10:27:57;;;;;;;33.87;25.30;;;;;;;;;;5022825;28;20249;-78
2021/04/17 10:30:22;;;;;;;35.47;25.77;;;;;;;;;;5034411;28;20177;-78
2021/04/17 10:32:48;;;;;;;31.43;25.77;;;;;;;;;;5034700;28;20176;-77
2021/04/17 10:35:15;;;;;;;36.97;27.67;;;;;;;;;;5034094;28;20169;-78
2021/04/17 10:37:46;;;;;;;24.93;20.20;;;;;;;;;;5034464;28;20550;-78
2021/04/17 10:40:14;;;;;;;21.33;17.37;;;;;;;;;;5034028;28;20168;-78
2021/04/17 10:43:00;;;;;;;19.10;16.63;;;;;;;;;;5033243;28;20204;-78
2021/04/17 10:45:28;;;;;;;19.67;15.93;;;;;;;;;;5033352;28;20230;-79
2021/04/17 10:48:10;;;;;;;18.00;15.23;;;;;;;;;;5046680;28;20258;-78
2021/04/17 10:50:37;;;;;;;20.33;16.27;;;;;;;;;;5057544;28;20256;-78
2021/04/17 10:53:05;;;;;;;17.07;15.23;;;;;;;;;;5055957;28;20616;-78
2021/04/17 10:55:34;;;;;;;20.47;16.80;;;;;;;;;;5043409;28;20263;-78
2021/04/17 10:58:00;;;;;;;20.90;16.60;;;;;;;;;;5042336;28;20552;-78
2021/04/17 11:00:35;;;;;;;40.50;31.43;;;;;;;;;;5039687;28;20172;-79
2021/04/17 11:03:02;;;;;;;27.23;19.83;;;;;;;;;;5030559;28;20195;-78
2021/04/17 11:05:31;;;;;;;29.13;19.70;;;;;;;;;;5035544;28;20172;-78
2021/04/17 11:08:00;;;;;;;31.53;22.80;;;;;;;;;;5032690;28;20297;-79
2021/04/17 11:10:30;;;;;;;22.80;18.03;;;;;;;;;;5033003;28;20179;-79
2021/04/17 11:12:56;;;;;;;15.73;13.43;;;;;;;;;;5034072;28;20185;-78
2021/04/17 11:15:29;;;;;;;15.70;13.67;;;;;;;;;;5033946;28;20161;-78
2021/04/17 11:18:13;;;;;;;16.10;12.97;;;;;;;;;;5033986;28;20605;-79
2021/04/17 11:20:47;;;;;;;15.77;13.47;;;;;;;;;;5033409;28;20175;-79
2021/04/17 11:23:31;;;;;;;26.80;20.00;;;;;;;;;;5033631;28;20167;-78
2021/04/17 11:25:56;;;;;;;43.53;32.90;;;;;;;;;;5033159;28;20169;-78
2021/04/17 11:28:22;;;;;;;26.10;19.63;;;;;;;;;;5034275;28;20169;-78
2021/04/17 11:30:49;;;;;;;29.57;20.37;;;;;;;;;;5033547;28;20196;-78
2021/04/17 11:33:14;;;;;;;43.97;29.97;;;;;;;;;;5033646;28;20169;-78
2021/04/17 11:35:39;;;;;;;34.37;23.67;;;;;;;;;;5033500;28;20523;-78
2021/04/17 11:38:05;;;;;;;61.63;35.67;;;;;;;;;;5033405;28;20216;-78
2021/04/17 11:40:30;;;;;;;24.60;19.47;;;;;;;;;;5033267;28;20173;-79
2021/04/17 11:42:56;;;;;;;18.87;16.77;;;;;;;;;;5033424;28;20591;-79
2021/04/17 11:45:22;;;;;;;75.13;53.07;;;;;;;;;;5030151;28;20685;-79
2021/04/17 11:47:47;;;;;;;142.00;88.57;;;;;;;;;;5031702;28;20658;-79
2021/04/17 11:50:13;;;;;;;43.50;30.37;;;;;;;;;;5033402;28;20287;-78
2021/04/17 11:52:38;;;;;;;28.30;22.90;;;;;;;;;;5033123;28;20624;-78
2021/04/17 11:55:04;;;;;;;72.37;41.83;;;;;;;;;;5033331;28;20175;-78
2021/04/17 11:57:29;;;;;;;21.43;17.27;;;;;;;;;;5033284;28;20183;-79
2021/04/17 11:59:54;;;;;;;22.97;18.77;;;;;;;;;;5033922;28;20506;-78
2021/04/17 12:02:20;;;;;;;52.90;40.47;;;;;;;;;;5029768;28;20655;-79
2021/04/17 12:04:45;;;;;;;48.50;33.60;;;;;;;;;;5024962;28;20543;-78
2021/04/17 12:07:10;;;;;;;34.60;27.17;;;;;;;;;;5016955;28;20295;-78
2021/04/17 12:09:36;;;;;;;26.63;21.70;;;;;;;;;;5016826;28;20221;-78
2021/04/17 12:12:01;;;;;;;24.23;19.47;;;;;;;;;;5017199;28;20192;-78
2021/04/17 12:14:26;;;;;;;22.33;18.47;;;;;;;;;;5016785;28;20172;-78
2021/04/17 12:16:52;;;;;;;23.67;20.13;;;;;;;;;;5016081;28;20184;-78
2021/04/17 12:19:18;;;;;;;39.87;31.47;;;;;;;;;;5016878;28;20624;-78
2021/04/17 12:21:43;;;;;;;63.30;48.17;;;;;;;;;;5016491;28;20272;-78
2021/04/17 12:24:09;;;;;;;50.50;39.00;;;;;;;;;;5016878;28;20229;-78
2021/04/17 12:26:34;;;;;;;58.37;42.90;;;;;;;;;;5017435;28;20212;-78
2021/04/17 12:29:00;;;;;;;61.57;44.67;;;;;;;;;;5042795;28;20174;-78
2021/04/17 12:31:26;;;;;;;63.57;49.70;;;;;;;;;;5041204;28;20238;-78
2021/04/17 12:33:52;;;;;;;40.17;33.07;;;;;;;;;;5034335;28;20180;-79
2021/04/17 12:36:17;;;;;;;41.00;33.00;;;;;;;;;;5034199;28;20622;-80
2021/04/17 12:38:42;;;;;;;30.13;26.23;;;;;;;;;;5034063;28;20715;-79
2021/04/17 12:41:11;;;;;;;30.60;26.20;;;;;;;;;;5034018;28;20177;-79
2021/04/17 12:43:37;;;;;;;35.53;29.43;;;;;;;;;;5034210;28;20259;-79
2021/04/17 12:46:03;;;;;;;28.13;22.97;;;;;;;;;;5036249;28;20171;-78
2021/04/17 12:48:29;;;;;;;23.00;18.87;;;;;;;;;;5035816;28;20331;-78
2021/04/17 12:50:54;;;;;;;22.87;19.47;;;;;;;;;;5035847;28;20196;-78
2021/04/17 12:53:24;;;;;;;32.23;25.63;;;;;;;;;;5035182;28;20595;-78
2021/04/17 12:55:50;;;;;;;45.37;38.07;;;;;;;;;;5036441;28;20192;-78
2021/04/17 12:58:15;;;;;;;41.73;33.50;;;;;;;;;;5035812;28;20168;-78
2021/04/17 13:00:41;;;;;;;33.50;28.57;;;;;;;;;;5035515;28;20191;-78
2021/04/17 13:03:06;;;;;;;29.83;24.03;;;;;;;;;;5035783;28;20604;-79
2021/04/17 13:05:31;;;;;;;41.40;32.43;;;;;;;;;;5035916;28;20611;-78
2021/04/17 13:07:57;;;;;;;27.03;22.70;;;;;;;;;;5035089;28;20196;-79
2021/04/17 13:10:22;;;;;;;22.60;19.50;;;;;;;;;;5034099;28;20172;-79
2021/04/17 13:12:48;;;;;;;24.63;20.40;;;;;;;;;;5032595;28;20179;-79
2021/04/17 13:15:15;;;;;;;25.57;21.17;;;;;;;;;;5033630;28;20226;-78
2021/04/17 13:17:40;;;;;;;22.37;18.73;;;;;;;;;;5033253;28;20183;-79
2021/04/17 13:20:06;;;;;;;25.73;20.77;;;;;;;;;;5033555;28;20181;-79
2021/04/17 13:22:31;;;;;;;25.27;20.00;;;;;;;;;;5033226;28;20654;-78
2021/04/17 13:24:57;;;;;;;22.80;18.30;;;;;;;;;;5026962;28;20250;-79
2021/04/17 13:27:22;;;;;;;26.43;21.57;;;;;;;;;;5015533;28;20209;-78
2021/04/17 13:29:47;;;;;;;23.87;19.90;;;;;;;;;;5015605;28;20231;-78
2021/04/17 13:32:13;;;;;;;30.30;24.37;;;;;;;;;;5014062;28;20659;-78
2021/04/17 13:34:41;;;;;;;25.70;22.17;;;;;;;;;;5015449;28;20337;-78
2021/04/17 13:37:06;;;;;;;29.30;24.73;;;;;;;;;;5015091;28;20184;-78
2021/04/17 13:39:31;;;;;;;27.63;20.57;;;;;;;;;;5015411;28;20233;-78
2021/04/17 13:41:57;;;;;;;30.57;23.63;;;;;;;;;;5015306;28;20189;-78
2021/04/17 13:44:22;;;;;;;32.47;24.50;;;;;;;;;;5015730;28;20169;-78
2021/04/17 13:46:48;;;;;;;28.03;22.23;;;;;;;;;;5015309;28;20599;-78
2021/04/17 13:49:13;;;;;;;35.03;25.57;;;;;;;;;;5015475;28;20201;-78
2021/04/17 13:51:38;;;;;;;24.90;20.07;;;;;;;;;;5015449;28;20663;-78
2021/04/17 13:54:04;;;;;;;20.50;17.20;;;;;;;;;;5015392;28;20620;-78
2021/04/17 13:56:29;;;;;;;21.23;17.60;;;;;;;;;;5015090;28;20620;-78
2021/04/17 13:58:55;;;;;;;27.60;20.63;;;;;;;;;;5014979;28;20184;-78
2021/04/17 14:01:20;;;;;;;23.17;19.40;;;;;;;;;;5015143;28;20173;-77
2021/04/17 14:03:45;;;;;;;24.20;20.77;;;;;;;;;;5014966;28;20516;-77
2021/04/17 14:06:11;;;;;;;27.90;21.87;;;;;;;;;;5014590;28;20609;-77
2021/04/17 14:08:36;;;;;;;25.23;21.60;;;;;;;;;;5014938;28;20174;-77
2021/04/17 14:11:03;;;;;;;22.33;19.10;;;;;;;;;;5014563;28;20166;-77
2021/04/17 14:13:29;;;;;;;22.77;19.37;;;;;;;;;;5014435;28;20181;-77